Agency Village, SD

7:45 PM CDT on October 20, 2014 (GMT -0500)
Coteau Des prairie | Change Station
CLOSE
Current Station
Personal Weather Station
Location: Veblen, SD
Elevation: 1883 ft
Nearby Weather Stations

Elev 1883 ft 45.77 °N, 97.37 °W | Updated 3 seconds ago

Clear
Clear
49.2 °F
Feels Like 49 °F
N
0.0
Wind Variable Wind from NNE
Gusts 0.0 mph

Today
High -- | Low -- °F
--% Chance of Precip.
Yesterday
High -- | Low -- °F
Precip. -- in
7:51 AM 6:33 PM
Waning Crescent, 8% visible
Pressure 30.05 in
Visibility 10.0 miles
Clouds Clear
Windchill 49 °F
Dew Point 37 °F
Humidity 63%
Rainfall 0.00 in
Snow Depth Not available.
UV 0 out of 12
Pollen 1.00 out of 12
Air Quality Not available.
Flu Activity Sporadic
METAR KETH 210036Z AUTO 06003KT 10SM CLR 11/03 A3005 RMK AO2

More Conditions Fewer Conditions

Pressure 30.05 in
Visibility 10.0 miles
Clouds Clear
Windchill 49 °F
Dew Point 37 °F
Humidity 63%
Rainfall 0.00 in
Snow Depth Not available.
UV 0 out of 12
Pollen 1.00 out of 12
Air Quality Not available.
Flu Activity Sporadic
METAR KETH 210036Z AUTO 06003KT 10SM CLR 11/03 A3005 RMK AO2

More Conditions Fewer Conditions

10-Day Weather Forecast

Almanac

Astronomy

Oct. 20, 2014 Rise Set
Actual Time 7:51 AM CDT 6:33 PM CDT
Civil Twilight 7:21 AM CDT 7:03 PM CDT
Nautical Twilight 6:46 AM CDT 7:38 PM CDT
Astronomical Twilight 6:12 AM CDT 8:12 PM CDT
Moon 4:31 AM CDT (10/20) 5:04 PM CDT (10/20)
Length of Visible Light 11h 42m
Length of Day
10h 42m
Tomorrow will be 3m 3s shorter.
Waning Crescent, 8% of the Moon is Illuminated
Today
Waning Crescent
Oct 23
New
Oct 30
First Quarter
Nov 6
Full
Nov 14
Last Quarter

Today's Extremes

State Highs State Lows

Community

WunderPhotos

Upload Photos

1,763,565 photos uploaded!

Nearby

Snow Depth

Station Depth Elevation
Blind Park 0 in 6890 ft

Earthquake Activity

City Distance Mag. Time & Date
No recent earthquake activity has been reported nearby.
Minimum magnitude displayed is 2.5.

Coastal Water Temperatures

Place Temperature
No Stations Reporting

Nearby Weather Stations